Time;durP1;ratioP1;P1;durP2;ratioP2;P2;SDS_P1;SDS_P2;PMS_P1;PMS_P2;Temp;Humidity;BMP_temperature;BMP_pressure;BME280_temperature;BME280_humidity;BME280_pressure;Samples;Min_cycle;Max_cycle;Signal;HPM_P1;HPM_P2
2022/06/17 04:32:13;;;;;;;;;9.00;9.00;;;;;24.29;39.80;101833.16;3286351;26;45978;-73
2022/06/17 04:34:39;;;;;;;;;9.50;9.25;;;;;24.26;39.59;101831.53;5016338;28;46268;-73
2022/06/17 04:37:09;;;;;;;;;10.25;9.25;;;;;24.31;40.22;101837.50;5016306;28;45460;-74
2022/06/17 04:39:54;;;;;;;;;10.50;10.50;;;;;24.31;39.94;101837.50;5016631;28;45576;-74
2022/06/17 04:42:24;;;;;;;;;10.00;8.25;;;;;24.33;39.70;101846.44;5016360;28;45412;-74
2022/06/17 04:44:52;;;;;;;;;10.50;10.00;;;;;24.27;40.32;101827.81;5015740;28;47393;-73
2022/06/17 04:47:22;;;;;;;;;9.25;9.25;;;;;24.29;39.52;101834.03;5013085;28;45345;-74
2022/06/17 04:49:53;;;;;;;;;10.75;9.25;;;;;24.34;39.45;101845.44;4995225;28;45536;-72
2022/06/17 04:52:27;;;;;;;;;8.50;7.00;;;;;24.30;39.72;101843.13;5014262;28;45352;-72
2022/06/17 04:54:56;;;;;;;;;9.00;8.50;;;;;24.31;39.45;101851.22;5013244;28;46280;-74
2022/06/17 04:57:22;;;;;;;;;7.50;7.50;;;;;24.29;39.57;101845.00;5015963;28;45198;-73
2022/06/17 04:59:47;;;;;;;;;8.75;7.50;;;;;24.29;39.54;101841.38;5016134;28;45377;-72
2022/06/17 05:02:22;;;;;;;;;8.75;8.75;;;;;24.32;39.40;101849.34;5015543;28;45499;-73
2022/06/17 05:04:53;;;;;;;;;9.50;8.25;;;;;24.30;39.53;101844.00;5015341;28;46329;-75
2022/06/17 05:07:20;;;;;;;;;5.75;4.75;;;;;24.30;39.68;101840.38;5013184;28;45630;-73
2022/06/17 05:09:51;;;;;;;;;8.50;7.50;;;;;24.27;39.87;101835.16;5015639;28;45395;-74
2022/06/17 05:12:35;;;;;;;;;6.50;6.50;;;;;24.32;39.51;101844.72;5015527;28;45501;-73
2022/06/17 05:15:14;;;;;;;;;7.25;7.00;;;;;24.29;39.92;101839.50;4997849;28;45591;-75
2022/06/17 05:17:39;;;;;;;;;8.25;7.50;;;;;24.32;39.69;101842.00;5015270;28;45379;-74
2022/06/17 05:20:06;;;;;;;;;8.25;8.00;;;;;24.35;39.71;101838.97;5015890;28;45349;-73
2022/06/17 05:22:41;;;;;;;;;6.75;6.75;;;;;24.32;39.41;101824.69;5015510;28;45389;-76
2022/06/17 05:25:15;;;;;;;;;6.00;6.00;;;;;24.38;39.96;101827.75;5015876;28;45294;-76
2022/06/17 05:27:40;;;;;;;;;7.25;7.25;;;;;24.39;39.87;101821.28;5023063;28;45482;-78
2022/06/17 05:30:06;;;;;;;;;8.50;7.25;;;;;24.43;39.60;101821.84;5022027;28;45436;-76
2022/06/17 05:32:32;;;;;;;;;6.25;6.00;;;;;24.40;39.85;101817.53;5039492;28;45303;-74
2022/06/17 05:34:57;;;;;;;;;9.75;6.75;;;;;24.47;39.78;101813.25;5032783;28;45346;-76
2022/06/17 05:37:23;;;;;;;;;7.75;7.75;;;;;24.51;39.43;101817.44;4997828;28;45259;-75
2022/06/17 05:39:48;;;;;;;;;9.25;8.50;;;;;24.49;39.85;101808.50;5015152;28;45383;-75
2022/06/17 05:42:15;;;;;;;;;7.00;7.00;;;;;24.56;40.26;101818.91;5015506;28;45804;-79
2022/06/17 05:44:40;;;;;;;;;10.00;8.25;;;;;24.57;40.03;101813.31;5016144;28;45446;-78
2022/06/17 05:47:06;;;;;;;;;5.75;5.00;;;;;24.54;39.88;101805.34;5011545;28;46738;-80
2022/06/17 05:49:32;;;;;;;;;12.50;8.00;;;;;24.67;40.20;101816.94;5017264;28;45378;-78
2022/06/17 05:51:58;;;;;;;;;9.00;8.00;;;;;24.70;39.52;101822.19;5015748;28;45560;-79
2022/06/17 05:54:24;;;;;;;;;9.00;9.00;;;;;24.73;39.65;101821.03;5015200;28;46266;-78
2022/06/17 05:56:49;;;;;;;;;46.00;23.00;;;;;24.68;39.48;101812.34;5015385;28;45476;-76
2022/06/17 05:59:17;;;;;;;;;5.75;5.75;;;;;24.66;39.43;101811.63;5015467;28;45602;-79
2022/06/17 06:01:42;;;;;;;;;9.50;8.50;;;;;24.59;41.05;101807.66;5015263;28;45613;-80
2022/06/17 06:04:07;;;;;;;;;8.75;8.75;;;;;24.65;41.57;101816.25;4997119;28;46502;-82
2022/06/17 06:06:33;;;;;;;;;9.00;8.00;;;;;24.60;40.04;101809.41;5015450;28;45309;-84
2022/06/17 06:08:58;;;;;;;;;8.25;8.25;;;;;24.66;40.72;101833.56;5022411;28;46068;-77
2022/06/17 06:11:24;;;;;;;;;9.00;9.00;;;;;24.51;41.90;101811.94;4996937;28;45530;-78
2022/06/17 06:13:49;;;;;;;;;10.75;9.50;;;;;24.61;39.87;101820.25;5019307;28;45812;-79
2022/06/17 06:16:15;;;;;;;;;6.50;6.50;;;;;24.65;40.37;101818.13;5014619;28;45386;-77
2022/06/17 06:18:41;;;;;;;;;12.00;8.75;;;;;24.64;40.25;101813.63;5019443;28;45905;-81
2022/06/17 06:21:07;;;;;;;;;7.50;7.50;;;;;24.69;40.60;101801.25;4996571;28;46669;-78
2022/06/17 06:23:38;;;;;;;;;9.50;9.00;;;;;24.52;40.38;101764.34;5010471;28;45969;-77
2022/06/17 06:26:07;;;;;;;;;10.75;9.50;;;;;24.79;40.79;101799.41;5001297;28;45263;-76
2022/06/17 06:28:33;;;;;;;;;6.25;6.25;;;;;24.86;39.63;101797.00;5014371;28;45394;-76
2022/06/17 06:31:06;;;;;;;;;9.25;9.00;;;;;24.96;40.78;101800.69;5016254;28;45329;-77
2022/06/17 06:33:32;;;;;;;;;11.50;9.50;;;;;25.03;40.54;101793.63;5016928;28;46110;-77
2022/06/17 06:35:59;;;;;;;;;8.75;8.75;;;;;25.15;40.44;101786.19;5015043;28;45329;-77
2022/06/17 06:38:25;;;;;;;;;10.25;10.00;;;;;25.18;38.70;101775.78;5014066;28;45385;-76
2022/06/17 06:40:50;;;;;;;;;8.00;8.00;;;;;25.24;38.68;101788.97;5018001;28;45389;-78
2022/06/17 06:43:18;;;;;;;;;7.00;7.00;;;;;25.25;39.00;101793.44;5014090;28;45930;-75
2022/06/17 06:45:47;;;;;;;;;8.75;8.50;;;;;25.13;39.61;101772.59;5014607;28;45320;-77
2022/06/17 06:48:15;;;;;;;;;10.25;10.00;;;;;25.30;38.71;101798.50;4996605;28;45548;-81
2022/06/17 06:50:42;;;;;;;;;8.00;8.00;;;;;25.23;39.28;101787.22;5013912;28;45428;-80
2022/06/17 06:53:08;;;;;;;;;9.00;8.00;;;;;25.26;39.22;101791.56;4998953;28;48438;-80
2022/06/17 06:55:34;;;;;;;;;12.75;10.50;;;;;25.13;38.29;101772.59;5011720;28;45482;-77
2022/06/17 06:58:06;;;;;;;;;8.75;7.00;;;;;25.21;38.49;101789.22;5018271;28;45214;-79
2022/06/17 07:00:39;;;;;;;;;9.25;8.75;;;;;25.23;38.76;101787.22;5015728;28;45745;-84
2022/06/17 07:03:05;;;;;;;;;9.00;7.00;;;;;25.26;38.71;101789.66;5013881;28;46514;-82
2022/06/17 07:05:32;;;;;;;;;7.75;7.75;;;;;25.08;38.65;101766.66;5014976;28;45424;-81
2022/06/17 07:07:57;;;;;;;;;9.00;8.00;;;;;25.19;38.78;101779.38;5016059;28;45489;-80
2022/06/17 07:10:33;;;;;;;;;9.00;9.00;;;;;25.33;38.15;101797.38;5014161;28;45548;-82
2022/06/17 07:12:59;;;;;;;;;8.75;8.75;;;;;25.42;38.98;101813.00;4996032;28;47757;-79
2022/06/17 07:15:25;;;;;;;;;14.00;8.00;;;;;25.43;38.62;101809.25;5012899;28;45402;-80
2022/06/17 07:18:02;;;;;;;;;9.00;8.00;;;;;25.50;38.39;101822.28;5013264;28;45448;-78
2022/06/17 07:20:37;;;;;;;;;12.00;10.00;;;;;25.57;38.50;101817.06;5013295;28;45384;-80
2022/06/17 07:23:04;;;;;;;;;8.75;7.75;;;;;25.46;37.83;101793.34;5012918;28;46242;-77
2022/06/17 07:25:30;;;;;;;;;7.00;5.00;;;;;25.57;38.78;101797.84;4995600;28;45394;-78
2022/06/17 07:27:55;;;;;;;;;8.00;8.00;;;;;25.60;39.07;101784.72;5013637;28;45246;-80
2022/06/17 07:30:22;;;;;;;;;12.50;10.50;;;;;25.82;38.32;101811.06;4998804;28;45353;-79
2022/06/17 07:32:48;;;;;;;;;9.00;7.00;;;;;25.85;39.39;101799.81;5024529;28;45518;-79
2022/06/17 07:35:15;;;;;;;;;10.75;9.75;;;;;25.89;37.94;101789.38;5018423;28;45498;-78
2022/06/17 07:40:27;;;;;;;;;9.50;7.50;;;;;26.03;37.29;101823.81;5018136;28;45555;-78
2022/06/17 07:42:53;;;;;;;;;8.00;8.00;;;;;25.97;37.61;101806.88;4999001;28;47896;-79
2022/06/17 07:45:19;;;;;;;;;8.75;8.75;;;;;26.05;38.13;101819.91;5016070;28;45355;-77
2022/06/17 07:47:48;;;;;;;;;10.25;9.00;;;;;26.07;37.47;101833.50;5017112;28;45354;-77
2022/06/17 07:50:17;;;;;;;;;9.00;9.00;;;;;26.11;37.04;101846.81;5016471;28;45494;-76
2022/06/17 07:52:42;;;;;;;;;6.75;6.75;;;;;26.18;37.31;101858.09;5016602;28;46151;-79
2022/06/17 07:55:09;;;;;;;;;11.25;11.25;;;;;26.24;37.60;101866.63;5011539;28;45399;-77
2022/06/17 07:57:34;;;;;;;;;10.75;10.75;;;;;26.30;36.83;101863.31;5009506;28;45396;-78
2022/06/17 08:00:00;;;;;;;;;12.25;9.00;;;;;26.31;36.80;101858.69;5016621;28;45692;-77
2022/06/17 08:02:26;;;;;;;;;9.00;8.00;;;;;26.41;36.74;101859.56;5016484;28;46089;-76
2022/06/17 08:04:51;;;;;;;;;9.75;9.75;;;;;26.41;36.67;101861.44;5016108;28;45285;-79
2022/06/17 08:07:17;;;;;;;;;8.50;8.50;;;;;26.44;36.73;101862.03;5016986;28;45394;-77
2022/06/17 08:09:43;;;;;;;;;8.50;8.50;;;;;26.46;36.62;101865.47;5017004;28;45356;-77
2022/06/17 08:12:11;;;;;;;;;9.00;9.00;;;;;26.44;36.02;101859.28;5016461;28;45316;-77
2022/06/17 08:14:43;;;;;;;;;11.25;9.00;;;;;26.54;36.03;101867.53;5016048;28;45429;-76
2022/06/17 08:17:13;;;;;;;;;12.00;11.50;;;;;26.52;36.43;101862.16;5018274;28;45502;-78
2022/06/17 08:19:39;;;;;;;;;8.00;8.00;;;;;26.65;35.39;101868.22;5016359;28;45317;-78
2022/06/17 08:22:05;;;;;;;;;7.00;7.00;;;;;26.59;35.53;101851.44;4998419;28;48801;-77
2022/06/17 08:24:30;;;;;;;;;8.50;8.50;;;;;26.75;35.13;101871.81;5015916;28;45254;-77
2022/06/17 08:26:55;;;;;;;;;7.75;7.75;;;;;26.82;35.28;101860.22;5017049;28;45306;-81
2022/06/17 08:29:22;;;;;;;;;8.75;8.75;;;;;26.77;35.46;101829.53;4995713;28;46289;-82
2022/06/17 08:31:48;;;;;;;;;11.00;11.00;;;;;26.69;36.60;101800.91;5009928;28;46964;-82
2022/06/17 08:34:13;;;;;;;;;9.50;9.50;;;;;26.91;35.82;101812.56;5024024;28;45429;-84
2022/06/17 08:36:39;;;;;;;;;9.00;7.00;;;;;27.17;34.83;101848.56;5021881;28;45478;-72
2022/06/17 08:39:09;;;;;;;;;10.50;7.75;;;;;27.22;34.75;101848.97;5016063;28;45554;-71
2022/06/17 08:41:48;;;;;;;;;8.50;8.50;;;;;27.26;35.05;101839.38;5016107;28;45349;-67
2022/06/17 08:44:32;;;;;;;;;11.25;10.25;;;;;27.34;35.76;101843.09;5016404;28;45419;-69
2022/06/17 08:47:16;;;;;;;;;13.00;9.00;;;;;27.37;35.00;101828.19;5016485;28;45873;-69
2022/06/17 08:49:53;;;;;;;;;11.00;9.25;;;;;27.45;33.31;101837.41;5016454;28;45441;-70
2022/06/17 08:52:44;;;;;;;;;10.50;9.75;;;;;27.48;32.76;101833.47;5016417;28;46191;-71
2022/06/17 08:55:27;;;;;;;;;5.25;5.25;;;;;27.52;34.60;101832.13;5016202;28;45392;-72
2022/06/17 08:57:59;;;;;;;;;2.00;0.50;;;;;27.57;33.42;101829.81;5018317;28;45351;-71
2022/06/17 09:00:46;;;;;;;;;10.25;7.00;;;;;27.61;33.09;101825.75;5026474;28;45659;-73
2022/06/17 09:03:33;;;;;;;;;9.75;9.75;;;;;27.70;34.48;101834.97;5015181;28;45335;-72
2022/06/17 09:06:16;;;;;;;;;8.75;8.50;;;;;27.75;33.72;101829.84;4998079;28;45383;-69
2022/06/17 09:09:13;;;;;;;;;6.75;6.75;;;;;27.80;33.28;101830.25;5007824;28;45471;-69
2022/06/17 09:11:50;;;;;;;;;8.50;7.75;;;;;27.83;32.72;101827.19;5015134;28;45435;-71
2022/06/17 09:14:18;;;;;;;;;8.50;8.50;;;;;27.89;31.94;101823.81;5015131;28;45437;-72
2022/06/17 09:17:23;;;;;;;;;5.50;5.50;;;;;27.96;31.42;101829.56;5015128;28;45355;-72
2022/06/17 09:19:53;;;;;;;;;10.00;6.25;;;;;27.95;31.95;101825.94;4973097;28;45315;-72
2022/06/17 09:22:27;;;;;;;;;6.00;6.00;;;;;27.89;32.09;101820.19;5015466;28;45422;-71
2022/06/17 09:24:58;;;;;;;;;8.50;8.00;;;;;27.86;30.20;101829.63;5014747;28;46201;-72
2022/06/17 09:27:28;;;;;;;;;11.00;8.75;;;;;27.89;31.10;101815.53;4997106;28;45389;-72
2022/06/17 09:30:20;;;;;;;;;6.00;5.75;;;;;27.93;31.04;101814.19;5015376;28;45352;-74
2022/06/17 09:32:53;;;;;;;;;8.75;8.25;;;;;27.91;31.86;101807.97;5022641;28;45384;-70
2022/06/17 09:35:45;;;;;;;;;8.25;7.50;;;;;27.99;31.60;101824.59;4997164;28;46112;-71
2022/06/17 09:38:22;;;;;;;;;7.00;6.25;;;;;27.95;31.44;101814.91;5013809;28;45404;-70
2022/06/17 09:40:50;;;;;;;;;8.00;8.00;;;;;28.01;31.17;101821.66;5014758;28;45525;-74
2022/06/17 09:43:22;;;;;;;;;9.50;7.75;;;;;28.01;31.26;101822.53;5013680;28;45472;-73
2022/06/17 09:45:56;;;;;;;;;8.50;7.00;;;;;28.04;30.93;101826.88;5014549;28;45427;-71
2022/06/17 09:48:44;;;;;;;;;8.50;8.50;;;;;28.04;30.64;101827.75;5014969;28;45499;-72
2022/06/17 09:51:28;;;;;;;;;7.00;7.00;;;;;28.06;30.63;101820.19;5014211;28;45333;-74
2022/06/17 09:54:03;;;;;;;;;8.75;8.25;;;;;28.14;32.30;101827.69;5014389;28;45226;-71
2022/06/17 09:57:07;;;;;;;;;10.25;8.25;;;;;28.17;30.60;101819.09;5014490;28;45585;-71
2022/06/17 09:59:45;;;;;;;;;7.50;7.50;;;;;28.22;30.81;101811.22;5014462;28;45515;-70
2022/06/17 10:02:27;;;;;;;;;10.75;8.75;;;;;28.27;30.61;101813.50;5017117;28;45364;-70
2022/06/17 10:04:54;;;;;;;;;9.50;7.00;;;;;28.22;30.09;101803.81;5014054;28;45534;-78
2022/06/17 10:07:33;;;;;;;;;7.00;7.00;;;;;28.38;29.72;101811.38;5014331;28;45397;-73
2022/06/17 10:10:27;;;;;;;;;7.25;7.25;;;;;28.44;29.45;101810.72;5015079;28;45378;-74
2022/06/17 10:13:29;;;;;;;;;9.00;7.00;;;;;28.48;28.76;101811.28;4997062;28;45502;-74
2022/06/17 10:19:36;;;;;;;;;9.00;7.00;;;;;28.62;29.96;101807.91;5014765;28;45325;-75
2022/06/17 10:22:16;;;;;;;;;7.00;7.00;;;;;28.69;29.44;101811.75;5015586;28;45433;-77
2022/06/17 10:25:06;;;;;;;;;6.00;6.00;;;;;28.72;28.75;101805.91;5014954;28;45606;-78
2022/06/17 10:27:47;;;;;;;;;6.25;6.25;;;;;28.76;28.71;101795.41;5013055;28;45487;-77
2022/06/17 10:30:45;;;;;;;;;5.00;5.00;;;;;28.74;29.08;101787.31;5011222;28;46170;-73
2022/06/17 10:33:15;;;;;;;;;5.00;5.00;;;;;28.84;28.71;101799.09;5007236;28;45377;-78
2022/06/17 10:35:43;;;;;;;;;8.50;7.00;;;;;28.91;28.48;101802.97;4997797;28;45454;-73
2022/06/17 10:38:16;;;;;;;;;6.50;6.50;;;;;28.91;28.52;101808.50;5013747;28;45333;-74
2022/06/17 10:40:41;;;;;;;;;10.75;5.25;;;;;28.92;27.99;101804.69;5014147;28;45524;-72
2022/06/17 10:43:14;;;;;;;;;7.25;5.75;;;;;28.94;28.50;101799.88;5013931;28;45571;-73
2022/06/17 10:45:40;;;;;;;;;5.75;5.75;;;;;28.99;28.33;101793.88;5014725;28;45417;-74
2022/06/17 10:48:11;;;;;;;;;4.50;4.50;;;;;29.10;28.70;101795.44;5014016;28;45572;-73
2022/06/17 10:50:36;;;;;;;;;5.50;4.75;;;;;29.13;28.51;101795.13;4995992;28;46522;-75
2022/06/17 10:53:17;;;;;;;;;4.50;4.50;;;;;29.24;26.74;101803.13;5013991;28;46098;-74
2022/06/17 10:55:47;;;;;;;;;6.00;5.25;;;;;29.26;26.70;101801.06;5014432;28;45403;-73
2022/06/17 10:58:17;;;;;;;;;7.50;7.00;;;;;29.28;27.68;101801.75;5013973;28;45465;-75
2022/06/17 11:00:45;;;;;;;;;7.00;6.00;;;;;29.30;27.58;101806.09;5014205;28;45567;-74
2022/06/17 11:03:38;;;;;;;;;5.25;5.25;;;;;29.36;28.04;101810.09;5012942;28;45420;-73
2022/06/17 11:06:11;;;;;;;;;7.25;5.50;;;;;29.41;27.93;101809.63;4994080;28;45624;-75
2022/06/17 11:08:54;;;;;;;;;6.25;5.25;;;;;29.47;27.82;101806.16;5013808;28;45431;-74
2022/06/17 11:14:37;;;;;;;;;4.00;4.00;;;;;29.58;28.28;101808.63;5007359;28;45466;-77
2022/06/17 11:17:29;;;;;;;;;7.00;6.00;;;;;29.58;29.31;101809.50;5012696;28;45423;-77
2022/06/17 11:20:00;;;;;;;;;4.25;4.25;;;;;29.66;28.08;101816.94;5012777;28;45522;-73
2022/06/17 11:22:36;;;;;;;;;4.75;4.75;;;;;29.70;27.39;101807.25;5013435;28;46600;-74
2022/06/17 11:25:06;;;;;;;;;7.25;4.00;;;;;29.68;27.59;101788.13;4995072;28;45338;-71
2022/06/17 11:27:41;;;;;;;;;5.00;5.00;;;;;29.85;28.21;101801.97;5013746;28;45414;-72
2022/06/17 11:30:23;;;;;;;;;6.00;4.50;;;;;29.89;28.02;101789.50;5012754;28;45483;-74
2022/06/17 11:32:49;;;;;;;;;6.00;6.00;;;;;30.00;27.49;101794.75;5019615;28;46229;-73
2022/06/17 11:35:37;;;;;;;;;6.00;6.00;;;;;30.09;27.12;101791.81;5013298;28;45252;-75
2022/06/17 11:38:10;;;;;;;;;6.00;5.25;;;;;30.18;28.25;101789.91;5013614;28;45364;-75
2022/06/17 11:40:47;;;;;;;;;6.25;6.25;;;;;30.24;27.52;101772.63;5012961;28;45506;-76
2022/06/17 11:43:25;;;;;;;;;7.00;6.00;;;;;30.42;27.75;101784.38;5013047;28;48250;-75
2022/06/17 11:45:50;;;;;;;;;8.00;7.00;;;;;30.46;27.47;101760.81;5012911;28;45392;-76
2022/06/17 11:48:21;;;;;;;;;6.00;6.00;;;;;30.59;27.20;101765.88;5013419;28;45739;-73
2022/06/17 11:51:13;;;;;;;;;5.75;5.75;;;;;30.68;26.76;101762.03;5013086;28;45301;-75
2022/06/17 11:53:43;;;;;;;;;7.25;6.25;;;;;30.74;27.21;101758.56;4996282;28;45400;-74
2022/06/17 11:56:09;;;;;;;;;7.00;7.00;;;;;30.78;27.04;101743.34;5013399;28;45401;-75
2022/06/17 11:58:52;;;;;;;;;5.75;5.75;;;;;30.88;25.28;101753.34;5013671;28;45357;-76
2022/06/17 12:01:17;;;;;;;;;5.00;4.50;;;;;30.83;26.02;101731.69;5013087;28;45367;-75
2022/06/17 12:03:45;;;;;;;;;4.00;4.00;;;;;30.99;26.63;101745.50;5013440;28;45356;-75
2022/06/17 12:06:21;;;;;;;;;4.50;4.00;;;;;31.08;26.74;101741.69;5013238;28;45490;-75
2022/06/17 12:08:57;;;;;;;;;5.00;5.00;;;;;31.19;26.26;101743.19;5013506;28;45503;-74
2022/06/17 12:11:33;;;;;;;;;5.75;5.00;;;;;31.28;26.43;101739.34;5012883;28;45273;-73
2022/06/17 12:14:04;;;;;;;;;6.75;5.50;;;;;31.42;25.93;101740.47;5013441;28;45543;-73
2022/06/17 12:16:42;;;;;;;;;9.00;7.00;;;;;31.49;28.55;101736.78;5015695;28;45357;-78
2022/06/17 12:19:17;;;;;;;;;7.25;7.00;;;;;31.52;26.33;101743.88;4998506;28;45187;-74
2022/06/17 12:21:49;;;;;;;;;6.00;6.00;;;;;31.56;26.68;101734.13;5019353;28;45279;-76
2022/06/17 12:25:02;;;;;;;;;5.75;5.75;;;;;31.64;26.44;101728.59;5018516;28;46267;-77
2022/06/17 12:27:37;;;;;;;;;5.00;5.00;;;;;31.77;26.58;101727.94;4947311;28;45545;-73
2022/06/17 12:30:12;;;;;;;;;6.25;5.50;;;;;31.84;25.50;101721.47;5013802;28;45436;-75
2022/06/17 12:32:49;;;;;;;;;6.00;5.25;;;;;31.88;25.59;101717.28;5008381;28;45268;-75
2022/06/17 12:35:30;;;;;;;;;6.50;5.25;;;;;31.98;25.88;101719.81;5017181;28;46324;-74
2022/06/17 12:38:16;;;;;;;;;10.25;5.00;;;;;32.07;25.79;101715.91;5015491;28;45345;-74
2022/06/17 12:40:54;;;;;;;;;5.00;5.00;;;;;32.11;26.02;101708.06;5015952;28;45480;-75
2022/06/17 12:43:36;;;;;;;;;8.50;6.00;;;;;32.22;25.46;101716.84;5015825;28;45544;-74
2022/06/17 12:46:31;;;;;;;;;8.25;7.00;;;;;32.28;25.59;101713.31;5015669;28;46290;-74
2022/06/17 12:55:38;;;;;;;;;5.50;5.50;;;;;32.61;25.01;101701.84;5014942;28;45395;-74
2022/06/17 12:58:26;;;;;;;;;6.00;5.00;;;;;32.71;25.53;101693.25;5029176;28;45485;-73
2022/06/17 13:00:58;;;;;;;;;7.25;6.75;;;;;32.77;25.78;101689.69;5015575;28;45404;-74
2022/06/17 13:04:01;;;;;;;;;7.50;7.50;;;;;32.88;24.87;101694.78;5003503;28;45449;-74
2022/06/17 13:06:35;;;;;;;;;7.50;6.75;;;;;32.96;24.51;101703.00;5015492;28;45404;-74
2022/06/17 13:09:23;;;;;;;;;7.00;6.00;;;;;33.01;23.77;101700.50;5015945;28;46011;-79
2022/06/17 13:12:03;;;;;;;;;6.00;5.00;;;;;33.07;23.90;101713.63;4997018;28;45483;-75
2022/06/17 13:14:53;;;;;;;;;5.00;5.00;;;;;33.11;24.07;101706.63;5015858;28;45448;-75
2022/06/17 13:17:45;;;;;;;;;7.25;6.25;;;;;33.17;25.10;101700.31;5014652;28;45686;-77
2022/06/17 13:20:24;;;;;;;;;8.25;5.50;;;;;33.19;24.79;101678.72;5015576;28;45997;-76
2022/06/17 13:22:59;;;;;;;;;5.00;5.00;;;;;33.37;24.40;101681.09;5002195;28;45395;-75
2022/06/17 13:25:38;;;;;;;;;6.00;5.00;;;;;33.49;24.52;101678.66;5015095;28;45351;-76
2022/06/17 13:28:20;;;;;;;;;5.00;5.00;;;;;33.59;24.46;101676.41;5014357;28;45365;-76
2022/06/17 13:30:53;;;;;;;;;6.50;5.25;;;;;33.66;23.65;101657.88;5015417;28;45820;-75
2022/06/17 13:33:39;;;;;;;;;6.00;6.00;;;;;33.80;23.65;101656.94;5021783;28;45426;-75
2022/06/17 13:36:14;;;;;;;;;6.00;5.00;;;;;33.94;23.91;101664.34;5016676;28;45380;-75
2022/06/17 13:38:45;;;;;;;;;8.25;5.00;;;;;33.97;23.16;101666.72;5014635;28;45415;-74
2022/06/17 13:41:25;;;;;;;;;7.00;7.00;;;;;33.97;23.76;101660.31;5014473;28;47193;-75
2022/06/17 13:44:03;;;;;;;;;7.00;6.00;;;;;33.90;24.15;101648.25;5002182;28;45289;-79
2022/06/17 13:46:40;;;;;;;;;7.25;5.25;;;;;33.98;24.29;101665.66;5014997;28;45405;-78
2022/06/17 13:49:36;;;;;;;;;10.00;8.25;;;;;33.86;24.13;101670.06;5014868;28;45250;-77
2022/06/17 13:52:16;;;;;;;;;9.00;7.00;;;;;33.82;24.00;101670.66;5014618;28;46782;-77
2022/06/17 13:55:04;;;;;;;;;8.25;7.00;;;;;33.83;23.90;101670.47;5014893;28;45376;-76
2022/06/17 13:57:42;;;;;;;;;7.50;7.50;;;;;33.86;24.13;101670.06;5014935;28;45388;-77
2022/06/17 14:00:20;;;;;;;;;6.00;6.00;;;;;33.91;24.02;101670.31;5014534;28;45534;-76
2022/06/17 14:02:59;;;;;;;;;10.75;7.75;;;;;33.99;24.66;101667.41;5025618;28;46247;-76
2022/06/17 14:05:30;;;;;;;;;7.00;6.00;;;;;34.15;24.44;101671.81;5015301;28;45347;-77
2022/06/17 14:07:58;;;;;;;;;7.50;6.25;;;;;34.26;23.86;101662.94;5014648;28;45542;-78
2022/06/17 14:10:43;;;;;;;;;7.50;7.50;;;;;34.37;23.68;101656.78;5014147;28;45490;-77
2022/06/17 14:13:32;;;;;;;;;6.75;6.75;;;;;34.51;23.15;101654.94;5002567;28;46219;-75
2022/06/17 14:16:17;;;;;;;;;8.00;8.00;;;;;34.59;23.89;101652.00;5014047;28;45491;-74
2022/06/17 14:18:53;;;;;;;;;6.75;6.00;;;;;34.64;23.55;101640.22;5012896;28;45413;-77
2022/06/17 14:21:43;;;;;;;;;8.00;6.75;;;;;34.74;23.44;101640.72;5010704;28;45447;-77
2022/06/17 14:24:11;;;;;;;;;8.75;7.75;;;;;34.78;23.10;101645.69;4994039;28;47274;-78
2022/06/17 14:26:40;;;;;;;;;8.75;7.50;;;;;34.82;23.04;101641.41;5022123;28;45510;-74
2022/06/17 14:29:18;;;;;;;;;10.00;9.00;;;;;34.75;22.92;101625.75;5015345;28;45523;-78
2022/06/17 14:31:48;;;;;;;;;8.00;8.00;;;;;34.88;23.30;101635.00;5019579;28;45475;-76
2022/06/17 14:34:18;;;;;;;;;6.25;6.25;;;;;34.96;23.70;101633.13;5013928;28;46127;-77
2022/06/17 14:37:05;;;;;;;;;8.75;7.25;;;;;34.96;22.84;101635.91;4997899;28;45704;-78
2022/06/17 14:39:44;;;;;;;;;7.00;7.00;;;;;34.99;23.10;101624.31;5019326;28;45460;-74
2022/06/17 14:42:25;;;;;;;;;6.75;6.75;;;;;35.03;23.52;101623.72;5013573;28;45593;-75
2022/06/17 14:45:02;;;;;;;;;7.25;7.00;;;;;35.10;23.12;101613.44;5018638;28;45749;-76
2022/06/17 14:47:43;;;;;;;;;9.00;8.00;;;;;35.19;22.79;101609.38;5013691;28;45434;-76
2022/06/17 14:50:50;;;;;;;;;8.00;8.00;;;;;35.18;22.35;101610.44;4995964;28;45588;-74
2022/06/17 14:53:37;;;;;;;;;8.25;8.25;;;;;35.20;22.12;101613.91;5013579;28;45388;-76
2022/06/17 14:56:14;;;;;;;;;10.00;8.25;;;;;35.24;21.91;101604.06;5013926;28;46038;-78
2022/06/17 14:58:42;;;;;;;;;9.50;9.50;;;;;35.34;22.47;101616.72;5012601;28;45376;-77
2022/06/17 15:01:32;;;;;;;;;8.50;8.00;;;;;35.46;22.39;101612.25;5013273;28;45546;-77
2022/06/17 15:04:21;;;;;;;;;7.25;5.75;;;;;35.57;21.20;101606.88;5013160;28;45454;-77
2022/06/17 15:06:48;;;;;;;;;8.00;7.00;;;;;35.50;21.20;101589.28;5001900;28;45400;-76
2022/06/17 15:09:23;;;;;;;;;7.50;7.50;;;;;35.65;21.42;101611.38;4992857;28;45543;-75
2022/06/17 15:12:30;;;;;;;;;8.25;7.25;;;;;35.60;21.75;101600.88;5012375;28;45656;-72
2022/06/17 15:15:07;;;;;;;;;8.00;7.00;;;;;35.51;22.05;101581.78;4900762;28;45600;-73
2022/06/17 15:17:49;;;;;;;;;12.00;8.75;;;;;35.56;21.62;101604.31;5027159;28;46418;-73
2022/06/17 15:20:18;;;;;;;;;10.50;8.00;;;;;35.49;21.85;101597.88;5012794;28;45439;-70
2022/06/17 15:22:50;;;;;;;;;8.75;7.00;;;;;35.50;21.58;101607.94;5020375;28;45317;-68
2022/06/17 15:25:31;;;;;;;;;8.75;6.00;;;;;35.50;21.39;101600.44;5013207;28;45376;-70
2022/06/17 15:28:17;;;;;;;;;9.50;8.00;;;;;35.49;21.66;101595.06;5013165;28;45334;-70
2022/06/17 15:30:44;;;;;;;;;6.00;6.00;;;;;35.49;21.81;101590.34;5012586;28;45364;-71
2022/06/17 15:33:24;;;;;;;;;6.75;6.75;;;;;35.53;21.84;101588.88;5019774;28;45399;-71
2022/06/17 15:36:01;;;;;;;;;8.75;7.25;;;;;35.49;21.42;101578.34;5014102;28;46102;-72
2022/06/17 15:38:35;;;;;;;;;7.00;6.75;;;;;35.56;21.33;101585.63;5012539;28;46286;-70
2022/06/17 15:41:23;;;;;;;;;6.00;6.00;;;;;35.60;21.67;101584.16;5012916;28;45404;-70
2022/06/17 15:43:55;;;;;;;;;8.50;8.50;;;;;35.60;21.23;101584.16;5013142;28;45313;-71
2022/06/17 15:46:37;;;;;;;;;7.00;7.00;;;;;35.54;21.01;101579.44;5012576;28;45475;-73
2022/06/17 15:49:20;;;;;;;;;8.50;8.50;;;;;35.51;21.64;101567.84;5012478;28;46007;-70
2022/06/17 15:51:49;;;;;;;;;9.25;8.75;;;;;35.60;21.46;101578.56;5014917;28;45488;-71
2022/06/17 15:54:17;;;;;;;;;11.00;10.50;;;;;35.64;20.88;101573.44;5015309;28;45382;-70
2022/06/17 15:56:46;;;;;;;;;7.25;7.25;;;;;35.70;21.44;101569.78;5014594;28;45314;-69
2022/06/17 15:59:30;;;;;;;;;10.50;9.25;;;;;35.76;21.25;101570.88;5015042;28;45624;-71
2022/06/17 16:02:01;;;;;;;;;6.75;5.50;;;;;35.76;21.14;101566.16;5014863;28;45430;-69
2022/06/17 16:04:37;;;;;;;;;6.25;6.25;;;;;35.83;21.18;101571.72;5015340;28;45412;-67
2022/06/17 16:07:21;;;;;;;;;5.50;5.50;;;;;35.91;21.29;101571.47;5022473;28;45589;-69
2022/06/17 16:10:05;;;;;;;;;8.00;7.25;;;;;35.94;20.39;101571.06;5002179;28;45360;-68
2022/06/17 16:12:33;;;;;;;;;8.00;6.25;;;;;36.03;20.46;101569.75;5013763;28;45482;-68
2022/06/17 16:15:13;;;;;;;;;6.50;6.00;;;;;36.09;20.92;101571.66;5014818;28;45317;-69
2022/06/17 16:17:41;;;;;;;;;5.50;5.50;;;;;36.17;21.30;101565.84;5020359;28;45434;-69
2022/06/17 16:20:37;;;;;;;;;8.75;8.75;;;;;36.31;21.09;101577.88;5015967;28;45418;-69
2022/06/17 16:23:31;;;;;;;;;7.00;7.00;;;;;36.44;21.11;101576.97;5018561;28;45594;-70
2022/06/17 16:26:00;;;;;;;;;6.25;5.50;;;;;36.54;20.40;101569.00;5014147;28;45444;-69
2022/06/17 16:28:41;;;;;;;;;6.25;6.25;;;;;36.63;20.40;101570.47;5014496;28;45576;-71
2022/06/17 16:31:30;;;;;;;;;8.50;7.00;;;;;36.75;20.55;101563.97;5018062;28;46262;-70
2022/06/17 16:34:00;;;;;;;;;8.50;7.00;;;;;36.84;21.37;101561.75;4999326;28;45382;-69
2022/06/17 16:36:35;;;;;;;;;6.50;6.50;;;;;37.01;20.55;101571.34;5017181;28;45441;-69
2022/06/17 16:39:06;;;;;;;;;6.25;5.75;;;;;37.10;20.16;101569.13;5002440;28;45408;-68
2022/06/17 16:44:24;;;;;;;;;8.25;8.25;;;;;37.30;20.14;101572.69;5024365;28;45410;-71
2022/06/17 16:46:53;;;;;;;;;13.00;10.00;;;;;37.33;21.38;101560.22;5014610;28;45583;-73
2022/06/17 16:49:19;;;;;;;;;8.25;7.75;;;;;37.36;21.09;101557.78;5015236;28;45582;-70